Historyczne dane pomiarowe

Dodano dane terminowe – wersja testowa.

Dane z okresu 1951-2019

Wersja bazy: 1.34 [2019-03-16, lista zmian], aktualizacja planowana na 2019-04-15

Dane meteo z obszaru Polski uzyskane na podstawie danych udostępnionych przez Instytut Meteorologii i Gospodarki Wodnej – Państwowy Instytut Badawczy.

 

Wybierz Datę:    

       

TemperaturaWilgotnośćWiatrCiśnienieOpadyŚniegCzas trwania zjawisk
 Stacja t tx tn tng RH VA  wxwx mslp ppp RRR   cm mm wxwxwxwxwxwxwx
1999-08-14 6.2 9.4 3.3- 80.1 7.6 4.0 7.5 6.3 0.0- 833.7 6.1 0.0 6.1- 0.0 10.2-------
1999-08-13 3.5 5.1 2.5- 95.1 7.4 6.1 7.0 6.8 0.0- 836.1 0.0 0.0 0.0- 0.0 1.6--- 10.9---
1999-08-12 3.5 5.8 2.8- 97.1 7.6 7.1 7.6 7.5 0.0- 837.7 0.0 0.0 0.0- 0.0 0.4--- 14.0---
1999-08-11 7.8 10.3 5.8- 99.6 10.5 7.6 10.6 14.0 0.0- 836.6 2.9 2.8 0.1- 0.0 1.0 1.8-- 24.0---
1999-08-10 11.3 14.3 10.1- 93.5 12.5 6.6 8.3 9.0 0.0- 835.0 0.4 0.3 0.1- 0.0 0.0 0.8-- 13.3---
1999-08-09 13.2 14.8 11.0- 76.5 11.6 4.5 12.4 17.3 5.0- 833.4 0.8 0.4 0.4- 0.0 4.1 4.2-- 1.0---
1999-08-08 13.0 17.1 10.0- 86.6 12.9 4.9 6.1 2.8 0.0- 831.0 2.4 0.0 2.4- 0.0 9.2 0.4-- 2.7---
1999-08-07 13.5 17.0 11.9- 86.4 13.3 5.9 5.9 0.0 0.0- 834.5 0.1 0.1 0.0- 0.0 4.4 0.2-- 6.2---
1999-08-06 12.1 13.7 10.3- 87.3 12.3 6.4 9.4 7.5 2.0- 837.2 0.0 0.0 0.0- 0.0 6.4--- 10.2---
1999-08-05 11.8 13.9 10.4- 63.0 8.7 5.4 4.4 1.3 0.0- 839.0 0.0 0.0 0.0- 0.0 5.4--- 1.3---
1999-08-04 11.5 14.7 10.2- 59.3 8.1 3.3 3.1 0.0 0.0- 840.2 0.0 0.0 0.0- 0.0 5.4-------
1999-08-03 10.8 13.1 8.9- 60.4 7.9 1.9 4.9 0.0 0.0- 840.6 0.0 0.0 0.0- 0.0 11.4-------
1999-08-02 10.3 12.7 8.7- 70.4 8.8 3.5 6.4 2.2 0.0- 841.6 0.0 0.0 0.0- 0.0 10.0-------
1999-08-01 10.8 13.3 9.8- 65.4 8.4 5.0 8.8 9.5 0.0- 841.9 0.0 0.0 0.0- 0.0 12.7-------
1999-07-31 10.5 12.3 8.7- 71.8 9.0 3.5 9.1 7.7 0.0- 841.2 0.0 0.0 0.0- 0.0 12.5-------
1999-07-30 9.3 11.4 7.6- 79.6 9.4 3.5 9.3 12.7 0.0- 841.6 0.0 0.0 0.0- 0.0 14.0 0.2------
1999-07-29 8.3 10.3 6.8- 89.1 9.7 5.6 11.5 14.7 1.5- 842.6 0.0 0.0 0.0- 0.0 7.1--- 8.7---
1999-07-28 7.4 9.5 5.3- 79.0 8.1 3.0 10.8 19.5 1.2- 842.0 0.0 0.0 0.0- 0.0 14.6--- 1.4---
1999-07-27 8.4 12.4 6.3- 99.8 11.0 7.8 6.4 0.0 0.0- 842.6 0.0 0.0 0.0- 0.0 2.1--- 23.6---
1999-07-26 11.3 13.6 9.5- 90.4 12.1 4.8 7.8 4.8 0.0- 842.1 8.3 0.0 8.3- 0.0 11.9 4.7-- 10.1---
1999-07-25 9.5 11.5 5.9- 94.5 11.2 6.0 3.1 0.0 0.0- 843.4 0.0 0.0 0.0- 0.0 3.3--- 13.6---
1999-07-24 5.2 7.3 2.6- 98.3 8.7 7.1 5.8 6.5 0.0- 842.1 0.0 0.0 0.0- 0.0 0.9--- 22.0---
1999-07-23 5.4 6.9 4.1- 96.6 8.7 7.5 8.3 7.5 0.0- 837.5 2.7 2.1 0.6- 0.0 0.0 6.3-- 17.0---
1999-07-22 6.9 11.7 5.1- 86.8 8.7 6.3 8.0 8.1 0.0- 836.1 0.0 0.0 0.0- 0.0 6.1--- 0.7---
1999-07-21 11.8 15.3 10.5- 91.1 12.6 6.0 12.9 16.0 6.0- 837.4 5.7 0.1 5.6- 0.0 6.2 1.8-- 9.8---
1999-07-20 14.4 21.0 12.0- 71.0 11.5 2.8 6.8 7.3 0.0- 840.4 0.0 0.0 0.0- 0.0 11.1 0.3----- 1.9
1999-07-19 14.2 17.2 11.6- 60.8 9.7 3.3 5.9 2.5 0.0- 842.7 0.0 0.0 0.0- 0.0 15.0-------
1999-07-18 12.4 15.5 9.9- 70.6 10.2 4.3 3.4 0.0 0.0- 843.8 0.0 0.0 0.0- 0.0 8.0-------
1999-07-17 8.6 12.1 5.7- 79.6 8.8 4.1 4.4 3.0 0.0- 843.2 0.0 0.0 0.0- 0.0 7.2-------
1999-07-16 6.2 8.5 3.9- 89.6 8.5 6.5 8.0 4.5 1.5- 839.2 1.7 1.7 0.0- 0.0 6.6 0.4 0.1- 5.3---
1999-07-15 5.4 7.3 4.3- 93.4 8.4 6.9 11.0 14.8 2.2- 834.0 0.1 0.1 0.0- 0.0 0.3 1.0-- 15.7---
1999-07-14 9.6 12.1 7.1- 97.8 11.8 7.3 11.5 15.8 10.8- 829.2 8.4 8.3 0.1- 0.0 4.5 2.5-- 21.3-- 0.9
1999-07-13 11.7 13.0 11.3- 99.9 13.7 7.9 9.3 15.5 0.0- 833.3 18.3 17.7 0.6- 0.0 0.4 2.8-- 24.0-- 0.9
1999-07-12 11.7 14.2 9.6- 98.6 13.6 7.4 9.4 10.0 0.0- 839.7 31.8 31.1 0.7- 0.0 2.3 1.2-- 20.2-- 4.5
1999-07-11 10.4 11.2 9.5- 99.8 12.6 7.9 11.9 18.8 3.0- 842.1 2.4 0.8 1.6- 0.0 0.4 2.3-- 24.0---
1999-07-10 10.5 11.7 9.1- 99.6 12.7 7.6 18.0 24.0 20.5- 843.8 0.3 0.1 0.2- 0.0 0.1 1.2-- 24.0---
1999-07-09 9.1 10.9 6.5-100.0 11.6 8.0 13.9 24.0 9.2- 845.0 13.0 6.9 6.1- 0.0 0.0 22.0-- 24.0---
1999-07-08 6.3 7.6 5.2-100.0 9.6 8.0 19.1 24.0 23.8- 842.2 7.7 3.7 4.0- 0.0 0.0 20.5-- 24.0---
1999-07-07 9.0 13.0 7.2-100.0 11.5 8.0 7.9 7.7 0.0- 840.2 3.9 2.0 1.9- 0.0 0.0 10.7-- 24.0---
1999-07-06 14.3 17.0 13.0- 98.3 16.1 6.9 7.9 6.8 4.0- 837.0 13.7 0.5 13.2- 0.0 1.8 4.2-- 23.3-- 4.4
1999-07-05 15.8 18.9 12.9- 86.9 15.5 5.3 17.4 21.3 13.5- 837.8 0.0 0.0 0.0- 0.0 13.2--- 4.6---
1999-07-04 16.8 20.4 12.6- 70.6 13.4 3.9 7.3 9.2 3.5- 840.5 0.0 0.0 0.0- 0.0 13.5--- 0.7-- 0.3
1999-07-03 11.6 15.3 7.5- 80.5 11.0 3.3 5.9 5.8 0.0- 840.1 0.0 0.0 0.0- 0.0 11.8--- 1.3---
1999-07-02 9.1 10.3 8.3- 91.5 10.6 7.1 6.8 0.0 0.0- 839.6 2.0 2.0 0.0- 0.0 2.9 0.8-- 15.4---
1999-07-01 9.6 11.8 8.9- 92.6 11.1 7.0 5.1 0.0 0.0- 841.3 7.8 7.8 0.0- 0.0 0.7 1.0-- 13.3-- 1.5
1999-06-30 10.8 13.2 8.5- 86.0 11.2 6.3 4.3 0.0 0.0- 842.2 0.2 0.2 0.0- 0.0 3.4 0.5-- 1.0---
1999-06-29 7.9 11.3 4.8- 77.9 8.3 5.0 5.3 5.5 0.0- 842.6 0.0 0.0 0.0- 0.0 11.3-------
1999-06-28 9.8 13.1 8.1- 96.5 11.7 6.0 7.9 10.0 3.0- 837.4 0.0 0.0 0.0- 0.0 7.4--- 13.5-- 3.0
1999-06-27 8.8 10.9 7.5- 99.9 11.3 7.8 11.9 16.7 3.5- 835.4 1.8 1.8 0.0- 0.0 0.0 3.6-- 21.2---
1999-06-26 7.2 11.2 2.4- 84.1 8.7 6.1 6.6 5.2 3.5- 836.1 0.0 0.0 0.0- 0.0 13.5--- 3.4---
1999-06-25 2.8 4.7 1.3- 90.8 6.8 6.4 4.1 0.0 0.0- 840.6 2.3 1.3 1.0- 0.0 2.7 1.6 0.4- 8.1---
1999-06-24 2.6 4.3 1.4- 87.9 6.5 6.0 5.1 0.0 0.0- 842.5 0.4 0.4 0.0- 0.0 1.3 1.6- 0.1 5.2---
1999-06-23 0.9 2.6 -0.6- 96.0 6.3 6.5 18.0 16.8 13.5- 838.3 0.0 0.0 0.0- 0.0 7.2 5.3-- 10.4---
1999-06-22 0.4 2.6 -1.2- 99.9 6.3 8.0 22.3 24.0 24.0- 831.4 3.3 2.3 1.0- 0.0 0.0 6.4 8.5 1.7 24.0---
1999-06-21 4.4 8.3 2.4- 99.3 8.3 7.5 11.8 14.7 7.5- 830.1 9.0 7.3 1.7- 0.0 0.0 14.0-- 21.3---
1999-06-20 7.7 8.9 6.2- 93.3 9.8 5.6 5.3 2.7 0.0- 837.4 0.0 0.0 0.0- 0.0 4.7--- 8.3---
1999-06-19 6.4 7.6 4.4- 95.4 9.2 7.1 5.3 1.3 0.0- 839.6 0.2 0.2 0.0- 0.0 4.4 6.5-- 17.3---
1999-06-18 5.9 8.7 4.5- 96.9 9.0 7.8 7.5 7.6 0.0- 837.0 11.5 3.7 7.8- 0.0 0.0 14.8-- 20.3---
1999-06-17 8.0 9.4 7.0- 94.0 10.1 7.0 4.5 0.0 0.0- 840.7 0.3 0.2 0.1- 0.0 0.1 0.7-- 13.3---
1999-06-16 7.2 8.1 6.4-100.0 10.1 8.0 7.6 0.3 0.0- 844.0 0.1 0.1 0.0- 0.0 0.0 0.8-- 22.7---
342.7 ms

 

Źródłem pochodzenia danych jest Instytut Meteorologii i Gospodarki Wodnej – Państwowy Instytut Badawczy. Dane Instytutu Meteorologii i Gospodarki Wodnej – Państwowego Instytutu Badawczego zostały przetworzone.

Dane źródłowe można odnaleźć na stronie https://dane.imgw.pl